createdAt,value
2017-11-12T00:00:15.711Z,4.70
2017-11-12T00:02:43.470Z,4.80
2017-11-12T00:05:11.272Z,5.65
2017-11-12T00:07:39.131Z,6.85
2017-11-12T00:10:06.878Z,8.45
2017-11-12T00:12:34.659Z,5.75
2017-11-12T00:15:02.707Z,6.90
2017-11-12T00:17:30.467Z,6.95
2017-11-12T00:19:58.349Z,7.53
2017-11-12T00:22:27.007Z,8.75
2017-11-12T00:24:54.758Z,11.05
2017-11-12T00:27:22.544Z,6.53
2017-11-12T00:29:50.297Z,6.47
2017-11-12T00:32:18.570Z,6.47
2017-11-12T00:34:46.662Z,7.22
2017-11-12T00:37:14.407Z,7.12
2017-11-12T00:39:42.177Z,8.52
2017-11-12T00:42:09.959Z,8.15
2017-11-12T00:44:37.708Z,6.93
2017-11-12T00:47:05.446Z,6.35
2017-11-12T00:49:33.231Z,9.23
2017-11-12T00:52:01.095Z,6.25
2017-11-12T00:54:28.843Z,5.62
2017-11-12T00:56:56.628Z,6.90
2017-11-12T00:59:24.378Z,7.12
2017-11-12T01:01:52.123Z,7.32
2017-11-12T01:04:19.957Z,10.15
2017-11-12T01:06:47.765Z,6.15
2017-11-12T01:09:15.527Z,7.80
2017-11-12T01:11:43.304Z,5.62
2017-11-12T01:14:11.123Z,5.78
2017-11-12T01:16:38.917Z,5.60
2017-11-12T01:19:06.982Z,7.75
2017-11-12T01:21:34.719Z,8.18
2017-11-12T01:24:02.455Z,7.97
2017-11-12T01:26:30.267Z,6.37
2017-11-12T01:28:58.131Z,6.93
2017-11-12T01:31:25.870Z,7.47
2017-11-12T01:33:53.649Z,3.90
2017-11-12T01:36:21.391Z,5.10
2017-11-12T01:38:49.128Z,5.15
2017-11-12T01:41:16.907Z,5.12
2017-11-12T01:43:44.648Z,6.12
2017-11-12T01:46:12.381Z,4.87
2017-11-12T01:48:40.160Z,7.28
2017-11-12T01:51:08.676Z,4.60
2017-11-12T01:53:36.414Z,4.68
2017-11-12T01:56:04.211Z,7.28
2017-11-12T01:58:31.956Z,8.88
2017-11-12T02:00:59.700Z,8.55
2017-11-12T02:03:27.479Z,6.03
2017-11-12T02:05:55.219Z,10.10
2017-11-12T02:08:22.999Z,5.82
2017-11-12T02:10:50.776Z,8.50
2017-11-12T02:13:18.535Z,5.70
2017-11-12T02:15:46.298Z,5.40
2017-11-12T02:18:14.183Z,7.07
2017-11-12T02:20:41.935Z,5.85
2017-11-12T02:23:09.727Z,6.55
2017-11-12T02:25:37.526Z,7.50
2017-11-12T02:28:05.275Z,7.37
2017-11-12T02:30:33.086Z,5.87
2017-11-12T02:33:00.887Z,6.95
2017-11-12T02:35:29.406Z,6.97
2017-11-12T02:37:57.179Z,9.48
2017-11-12T02:40:24.977Z,6.82
2017-11-12T02:42:52.719Z,7.00
2017-11-12T02:45:20.471Z,7.62
2017-11-12T02:47:48.267Z,6.55
2017-11-12T02:50:16.012Z,13.40
2017-11-12T02:52:43.764Z,9.02
2017-11-12T02:55:11.575Z,9.35
2017-11-12T02:57:40.111Z,7.43
2017-11-12T03:00:07.854Z,11.57
2017-11-12T03:02:35.735Z,8.43
2017-11-12T03:05:03.473Z,8.95
2017-11-12T03:07:31.235Z,9.15
2017-11-12T03:09:59.275Z,8.70
2017-11-12T03:12:27.030Z,8.45
2017-11-12T03:14:55.534Z,8.02
2017-11-12T03:17:23.432Z,7.68
2017-11-12T03:19:51.217Z,10.25
2017-11-12T03:22:19.722Z,7.72
2017-11-12T03:24:47.537Z,7.57
2017-11-12T03:27:15.287Z,8.98
2017-11-12T03:29:43.026Z,9.38
2017-11-12T03:32:10.923Z,6.93
2017-11-12T03:34:38.789Z,7.95
2017-11-12T03:37:06.536Z,18.40
2017-11-12T03:39:34.621Z,7.05
2017-11-12T03:42:02.359Z,6.18
2017-11-12T03:44:30.141Z,6.00
2017-11-12T03:46:57.914Z,9.07
2017-11-12T03:49:25.651Z,7.95
2017-11-12T03:51:53.398Z,8.30
2017-11-12T03:54:21.171Z,8.40
2017-11-12T03:56:48.907Z,8.50
2017-11-12T03:59:16.655Z,6.32
2017-11-12T04:01:44.477Z,8.60
2017-11-12T04:04:12.252Z,10.35
2017-11-12T04:06:40.001Z,10.98
2017-11-12T04:09:07.788Z,8.13
2017-11-12T04:11:36.294Z,10.05
2017-11-12T04:14:04.031Z,7.60
2017-11-12T04:16:32.577Z,7.40
2017-11-12T04:19:00.330Z,4.78
2017-11-12T04:21:28.075Z,5.12
2017-11-12T04:23:55.864Z,3.10
2017-11-12T04:26:23.600Z,2.60
2017-11-12T04:28:51.335Z,6.60
2017-11-12T04:31:19.120Z,3.75
2017-11-12T04:33:46.872Z,3.35
2017-11-12T04:36:14.611Z,2.85
2017-11-12T04:38:43.156Z,4.90
2017-11-12T04:41:10.899Z,5.50
2017-11-12T04:43:38.667Z,4.18
2017-11-12T04:46:06.447Z,5.45
2017-11-12T04:48:34.194Z,5.40
2017-11-12T04:51:01.962Z,4.68
2017-11-12T04:53:29.740Z,4.70
2017-11-12T04:55:57.481Z,8.32
2017-11-12T04:58:25.227Z,3.95
2017-11-12T05:00:53.016Z,5.95
2017-11-12T05:03:20.766Z,7.75
2017-11-12T05:05:48.551Z,9.30
2017-11-12T05:08:16.334Z,29.40
2017-11-12T05:10:44.842Z,13.75
2017-11-12T05:13:12.631Z,12.80
2017-11-12T05:15:40.699Z,10.35
2017-11-12T05:18:08.449Z,10.38
2017-11-12T05:20:36.195Z,10.40
2017-11-12T05:23:03.968Z,8.27
2017-11-12T05:25:31.707Z,8.40
2017-11-12T05:27:59.509Z,8.38
2017-11-12T05:30:27.372Z,8.55
2017-11-12T05:32:55.122Z,10.35
2017-11-12T05:35:22.866Z,11.27
2017-11-12T05:37:50.643Z,9.07
2017-11-12T05:40:18.388Z,9.50
2017-11-12T05:42:46.129Z,10.10
2017-11-12T05:45:13.920Z,13.23
2017-11-12T05:47:41.658Z,10.88
2017-11-12T05:50:09.400Z,8.60
2017-11-12T05:52:38.046Z,11.00
2017-11-12T05:55:05.783Z,9.98
2017-11-12T05:57:33.532Z,9.75
2017-11-12T06:00:01.312Z,11.88
2017-11-12T06:02:29.052Z,12.35
2017-11-12T06:04:56.799Z,13.62
2017-11-12T06:07:24.587Z,10.95
2017-11-12T06:09:52.376Z,12.05
2017-11-12T06:12:20.122Z,8.70
2017-11-12T06:14:48.212Z,18.08
2017-11-12T06:17:15.956Z,11.25
2017-11-12T06:19:43.699Z,16.87
2017-11-12T06:22:11.501Z,11.88
2017-11-12T06:24:40.041Z,12.40
2017-11-12T06:27:07.784Z,12.68
2017-11-12T06:29:35.568Z,11.93
2017-11-12T06:32:03.358Z,16.20
2017-11-12T06:34:31.096Z,12.77
2017-11-12T06:36:58.877Z,11.15
2017-11-12T06:39:26.625Z,12.48
2017-11-12T06:41:54.407Z,19.17
2017-11-12T06:44:22.257Z,13.48
2017-11-12T06:46:50.285Z,10.77
2017-11-12T06:49:18.108Z,10.90
2017-11-12T06:51:45.962Z,14.77
2017-11-12T06:54:13.705Z,8.77
2017-11-12T06:56:41.487Z,12.15
2017-11-12T06:59:10.278Z,10.02
2017-11-12T07:01:39.070Z,11.32
2017-11-12T07:04:06.930Z,15.80
2017-11-12T07:06:34.719Z,9.85
2017-11-12T07:09:03.235Z,13.60
2017-11-12T07:11:30.983Z,12.40
2017-11-12T07:13:58.763Z,8.90
2017-11-12T07:16:26.525Z,8.10
2017-11-12T07:18:54.285Z,8.63
2017-11-12T07:21:22.228Z,7.65
2017-11-12T07:23:50.039Z,8.15
2017-11-12T07:26:17.780Z,9.05
2017-11-12T07:28:45.561Z,9.18
2017-11-12T07:31:13.312Z,6.10
2017-11-12T07:33:41.187Z,7.05
2017-11-12T07:36:08.971Z,5.40
2017-11-12T07:38:36.754Z,5.25
2017-11-12T07:41:04.575Z,6.53
2017-11-12T07:43:32.437Z,6.20
2017-11-12T07:46:00.943Z,6.15
2017-11-12T07:48:28.696Z,6.93
2017-11-12T07:50:56.542Z,6.32
2017-11-12T07:53:24.305Z,9.43
2017-11-12T07:55:52.043Z,9.35
2017-11-12T07:58:19.835Z,11.55
2017-11-12T08:00:48.160Z,10.63
2017-11-12T08:03:15.904Z,8.48
2017-11-12T08:05:44.459Z,14.80
2017-11-12T08:08:12.208Z,11.27
2017-11-12T08:10:39.951Z,10.95
2017-11-12T08:13:07.832Z,12.10
2017-11-12T08:15:35.576Z,8.43
2017-11-12T08:18:03.319Z,9.40
2017-11-12T08:20:31.130Z,7.80
2017-11-12T08:22:58.867Z,7.18
2017-11-12T08:25:26.615Z,14.48
2017-11-12T08:27:54.463Z,5.72
2017-11-12T08:30:22.210Z,4.85
2017-11-12T08:32:49.967Z,6.12
2017-11-12T08:35:18.529Z,13.30
2017-11-12T08:37:46.292Z,10.32
2017-11-12T08:40:14.804Z,4.65
2017-11-12T08:42:42.591Z,8.02
2017-11-12T08:45:10.356Z,5.05
2017-11-12T08:47:38.103Z,7.15
2017-11-12T08:50:05.903Z,5.10
2017-11-12T08:52:33.737Z,7.40
2017-11-12T08:55:01.490Z,8.70
2017-11-12T08:57:29.270Z,6.25
2017-11-12T08:59:57.018Z,8.05
2017-11-12T09:02:24.804Z,5.70
2017-11-12T09:04:52.586Z,6.75
2017-11-12T09:07:20.327Z,5.10
2017-11-12T09:09:48.075Z,7.60
2017-11-12T09:12:15.853Z,4.18
2017-11-12T09:14:43.599Z,5.45
2017-11-12T09:17:11.343Z,8.57
2017-11-12T09:19:39.130Z,5.62
2017-11-12T09:22:06.867Z,9.45
2017-11-12T09:24:34.607Z,3.80
2017-11-12T09:27:02.421Z,4.85
2017-11-12T09:29:30.163Z,8.90
2017-11-12T09:31:57.994Z,3.70
2017-11-12T09:34:25.815Z,3.60
2017-11-12T09:36:53.550Z,3.12
2017-11-12T09:39:21.294Z,2.87
2017-11-12T09:41:49.075Z,4.40
2017-11-12T09:44:16.853Z,3.78
2017-11-12T09:46:44.599Z,4.82
2017-11-12T09:49:13.198Z,3.45
2017-11-12T09:51:41.008Z,5.47
2017-11-12T09:54:09.641Z,4.53
2017-11-12T09:56:37.421Z,5.10
2017-11-12T09:59:05.171Z,3.40
2017-11-12T10:01:32.912Z,3.40
2017-11-12T10:04:00.691Z,5.50
2017-11-12T10:06:28.551Z,4.50
2017-11-12T10:08:56.294Z,7.55
2017-11-12T10:11:24.178Z,3.10
2017-11-12T10:13:51.947Z,3.85
2017-11-12T10:16:19.690Z,6.03
2017-11-12T10:18:47.484Z,4.87
2017-11-12T10:21:15.239Z,3.10
2017-11-12T10:23:43.088Z,5.20
2017-11-12T10:26:10.863Z,5.47
2017-11-12T10:28:38.614Z,3.20
2017-11-12T10:31:06.360Z,4.05
2017-11-12T10:33:34.150Z,4.25
2017-11-12T10:36:01.896Z,10.02
2017-11-12T10:38:29.657Z,24.65
2017-11-12T10:40:57.445Z,17.08
2017-11-12T10:43:25.951Z,11.55
2017-11-12T10:45:53.698Z,6.93
2017-11-12T10:48:22.448Z,10.00
2017-11-12T10:50:50.183Z,9.82
2017-11-12T10:53:17.924Z,10.80
2017-11-12T10:55:45.704Z,6.22
2017-11-12T10:58:13.452Z,7.22
2017-11-12T11:00:41.199Z,17.45
2017-11-12T11:03:08.985Z,6.78
2017-11-12T11:05:36.775Z,10.93
2017-11-12T11:08:04.537Z,11.77
2017-11-12T11:10:32.325Z,6.70
2017-11-12T11:13:00.843Z,10.10
2017-11-12T11:15:28.629Z,6.70
2017-11-12T11:17:57.352Z,6.70
2017-11-12T11:20:25.905Z,3.87
2017-11-12T11:22:53.768Z,7.43
2017-11-12T11:25:21.633Z,5.68
2017-11-12T11:27:49.370Z,6.03
2017-11-12T11:30:17.112Z,7.15
2017-11-12T11:32:44.892Z,5.32
2017-11-12T11:35:12.632Z,6.07
2017-11-12T11:37:40.458Z,5.50
2017-11-12T11:40:08.817Z,4.18
2017-11-12T11:42:36.556Z,6.22
2017-11-12T11:45:04.296Z,6.05
2017-11-12T11:47:32.071Z,4.95
2017-11-12T11:49:59.830Z,5.37
2017-11-12T11:52:27.629Z,12.40
2017-11-12T11:54:55.414Z,9.30
2017-11-12T11:57:23.777Z,9.40
2017-11-12T11:59:51.633Z,9.07
2017-11-12T12:02:19.425Z,3.92
2017-11-12T12:04:47.939Z,5.07
2017-11-12T12:07:15.673Z,6.18
2017-11-12T12:09:44.414Z,4.40
2017-11-12T12:12:12.279Z,5.80
2017-11-12T12:14:40.150Z,10.52
2017-11-12T12:17:08.008Z,9.88
2017-11-12T12:19:35.875Z,5.82
2017-11-12T12:22:03.620Z,8.73
2017-11-12T12:24:31.411Z,9.20
2017-11-12T12:26:59.164Z,6.37
2017-11-12T12:29:27.026Z,10.40
2017-11-12T12:31:54.877Z,9.98
2017-11-12T12:34:23.055Z,6.03
2017-11-12T12:36:50.786Z,5.15
2017-11-12T12:39:18.684Z,6.70
2017-11-12T12:41:47.874Z,7.30
2017-11-12T12:44:21.025Z,7.68
2017-11-12T12:46:48.856Z,4.55
2017-11-12T12:49:17.374Z,7.43
2017-11-12T12:51:45.167Z,4.70
2017-11-12T12:54:13.031Z,4.10
2017-11-12T12:56:40.868Z,4.65
2017-11-12T12:59:09.386Z,4.75
2017-11-12T13:01:37.160Z,5.00
2017-11-12T13:04:05.662Z,4.00
2017-11-12T13:06:33.423Z,7.93
2017-11-12T13:09:01.251Z,5.05
2017-11-12T13:11:29.070Z,10.25
2017-11-12T13:13:56.966Z,6.62
2017-11-12T13:16:24.768Z,5.20
2017-11-12T13:18:53.281Z,6.15
2017-11-12T13:21:22.609Z,5.18
2017-11-12T13:23:50.458Z,6.05
2017-11-12T13:26:18.223Z,4.70
2017-11-12T13:28:45.996Z,4.07
2017-11-12T13:31:13.778Z,6.47
2017-11-12T13:33:41.584Z,6.70
2017-11-12T13:36:09.380Z,3.75
2017-11-12T13:38:37.197Z,3.55
2017-11-12T13:41:04.950Z,3.90
2017-11-12T13:43:32.724Z,5.50
2017-11-12T13:46:00.632Z,5.82
2017-11-12T13:48:28.384Z,4.45
2017-11-12T13:50:56.257Z,5.60
2017-11-12T13:53:24.034Z,7.40
2017-11-12T13:55:51.914Z,6.03
2017-11-12T13:58:20.436Z,5.45
2017-11-12T14:00:48.223Z,4.93
2017-11-12T14:03:16.184Z,5.65
2017-11-12T14:05:43.926Z,7.80
2017-11-12T14:08:11.712Z,8.52
2017-11-12T14:10:39.446Z,8.43
2017-11-12T14:13:07.182Z,8.85
2017-11-12T14:15:34.960Z,10.05
2017-11-12T14:18:03.068Z,9.10
2017-11-12T14:20:30.818Z,18.95
2017-11-12T14:22:59.387Z,20.48
2017-11-12T14:25:28.991Z,13.93
2017-11-12T14:27:56.750Z,11.07
2017-11-12T14:30:24.696Z,14.73
2017-11-12T14:32:52.511Z,8.40
2017-11-12T14:35:21.097Z,10.65
2017-11-12T14:37:48.953Z,7.70
2017-11-12T14:40:16.813Z,6.22
2017-11-12T14:42:44.574Z,7.50
2017-11-12T14:45:12.439Z,9.75
2017-11-12T14:47:40.302Z,10.75
2017-11-12T14:50:08.150Z,14.60
2017-11-12T14:52:36.276Z,13.18
2017-11-12T14:55:06.444Z,12.43
2017-11-12T14:57:35.136Z,15.98
2017-11-12T15:00:02.920Z,26.05
2017-11-12T15:02:30.768Z,13.00
2017-11-12T15:04:58.729Z,10.98
2017-11-12T15:07:26.531Z,12.77
2017-11-12T15:09:55.072Z,14.90
2017-11-12T15:12:22.847Z,10.45
2017-11-12T15:14:50.640Z,18.10
2017-11-12T15:17:19.256Z,13.73
2017-11-12T15:19:47.003Z,15.07
2017-11-12T15:22:14.808Z,14.65
2017-11-12T15:24:42.563Z,15.23
2017-11-12T15:27:11.090Z,17.10
2017-11-12T15:29:39.009Z,27.27
2017-11-12T15:32:06.873Z,21.42
2017-11-12T15:34:34.635Z,21.15
2017-11-12T15:37:02.439Z,23.20
2017-11-12T15:39:30.200Z,21.92
2017-11-12T15:41:58.841Z,18.58
2017-11-12T15:44:27.463Z,17.75
2017-11-12T15:46:56.076Z,17.60
2017-11-12T15:49:23.815Z,21.95
2017-11-12T15:51:51.733Z,17.85
2017-11-12T15:54:19.509Z,16.92
2017-11-12T15:56:47.355Z,15.10
2017-11-12T15:59:15.143Z,13.82
2017-11-12T16:01:43.659Z,14.60
2017-11-12T16:04:11.404Z,16.90
2017-11-12T16:06:39.702Z,14.60
2017-11-12T16:09:07.467Z,13.93
2017-11-12T16:11:35.225Z,23.17
2017-11-12T16:14:03.024Z,20.98
2017-11-12T16:16:30.774Z,25.83
2017-11-12T16:18:59.292Z,21.50
2017-11-12T16:21:27.898Z,24.77
2017-11-12T16:23:55.648Z,17.77
2017-11-12T16:26:23.402Z,19.80
2017-11-12T16:28:51.953Z,22.15
2017-11-12T16:31:19.703Z,16.27
2017-11-12T16:33:47.447Z,19.00
2017-11-12T16:36:15.236Z,16.50
2017-11-12T16:38:42.988Z,19.95
2017-11-12T16:41:10.734Z,15.98
2017-11-12T16:43:39.320Z,14.57
2017-11-12T16:46:07.608Z,17.48
2017-11-12T16:48:35.379Z,19.20
2017-11-12T16:51:04.044Z,18.20
2017-11-12T16:53:31.809Z,21.52
2017-11-12T16:55:59.557Z,13.93
2017-11-12T16:58:27.376Z,15.20
2017-11-12T17:00:55.971Z,18.92
2017-11-12T17:03:23.799Z,19.85
2017-11-12T17:05:52.367Z,16.37
2017-11-12T17:08:20.115Z,22.08
2017-11-12T17:10:47.860Z,17.52
2017-11-12T17:13:15.643Z,20.70
2017-11-12T17:15:43.392Z,15.50
2017-11-12T17:18:11.145Z,20.23
2017-11-12T17:20:38.932Z,17.02
2017-11-12T17:23:06.691Z,17.37
2017-11-12T17:25:34.557Z,16.50
2017-11-12T17:28:02.339Z,16.05
2017-11-12T17:30:30.182Z,17.70
2017-11-12T17:32:57.931Z,19.50
2017-11-12T17:35:25.715Z,15.80
2017-11-12T17:37:53.461Z,18.73
2017-11-12T17:40:21.212Z,15.40
2017-11-12T17:42:48.995Z,15.63
2017-11-12T17:45:16.753Z,14.65
2017-11-12T17:47:44.504Z,17.52
2017-11-12T17:50:13.094Z,16.85
2017-11-12T17:52:40.838Z,17.80
2017-11-12T17:55:08.595Z,18.55
2017-11-12T17:57:36.582Z,16.35
2017-11-12T18:00:04.352Z,20.15
2017-11-12T18:02:32.116Z,25.30
2017-11-12T18:04:59.913Z,20.90
2017-11-12T18:07:28.435Z,20.98
2017-11-12T18:09:56.209Z,30.90
2017-11-12T18:12:24.047Z,26.02
2017-11-12T18:14:51.815Z,20.58
2017-11-12T18:17:19.575Z,25.95
2017-11-12T18:19:47.363Z,21.20
2017-11-12T18:22:15.113Z,13.65
2017-11-12T18:24:43.011Z,16.05
2017-11-12T18:27:11.620Z,10.50
2017-11-12T18:29:39.371Z,10.25
2017-11-12T18:32:07.879Z,12.20
2017-11-12T18:34:35.740Z,12.70
2017-11-12T18:37:03.502Z,13.13
2017-11-12T18:39:31.257Z,11.20
2017-11-12T18:41:59.035Z,10.05
2017-11-12T18:44:26.782Z,10.77
2017-11-12T18:46:54.532Z,9.70
2017-11-12T18:49:22.321Z,12.10
2017-11-12T18:51:50.076Z,10.13
2017-11-12T18:54:17.900Z,9.77
2017-11-12T18:56:48.263Z,11.25
2017-11-12T18:59:16.017Z,11.30
2017-11-12T19:01:58.762Z,11.70
2017-11-12T19:04:32.270Z,14.10
2017-11-12T19:07:02.911Z,13.85
2017-11-12T19:09:32.464Z,10.25
2017-11-12T19:12:00.220Z,13.73
2017-11-12T19:14:28.013Z,14.15
2017-11-12T19:16:58.280Z,9.85
2017-11-12T19:19:26.574Z,9.98
2017-11-12T19:21:54.356Z,9.93
2017-11-12T19:24:40.975Z,12.05
2017-11-12T19:27:09.456Z,13.43
2017-11-12T19:29:39.793Z,11.60
2017-11-12T19:32:08.365Z,14.45
2017-11-12T19:34:36.156Z,17.70
2017-11-12T19:37:04.674Z,14.20
2017-11-12T19:39:32.424Z,12.18
2017-11-12T19:42:00.306Z,13.57
2017-11-12T19:44:28.170Z,14.38
2017-11-12T19:46:55.934Z,16.08
2017-11-12T19:49:23.724Z,11.70
2017-11-12T19:51:51.475Z,12.60
2017-11-12T19:54:19.219Z,15.88
2017-11-12T19:56:47.027Z,14.95
2017-11-12T19:59:15.544Z,11.52
2017-11-12T20:01:43.293Z,13.02
2017-11-12T20:04:11.082Z,13.40
2017-11-12T20:06:38.844Z,15.65
2017-11-12T20:09:06.598Z,13.57
2017-11-12T20:11:34.466Z,15.60
2017-11-12T20:14:02.243Z,13.88
2017-11-12T20:16:30.115Z,21.62
2017-11-12T20:18:57.945Z,14.15
2017-11-12T20:21:26.493Z,14.50
2017-11-12T20:23:54.267Z,15.45
2017-11-12T20:26:22.054Z,17.33
2017-11-12T20:28:49.803Z,14.30
2017-11-12T20:31:17.556Z,19.50
2017-11-12T20:33:45.365Z,17.55
2017-11-12T20:36:13.128Z,23.15
2017-11-12T20:38:40.880Z,23.33
2017-11-12T20:41:08.665Z,18.80
2017-11-12T20:43:36.515Z,18.17
2017-11-12T20:46:04.267Z,21.00
2017-11-12T20:48:32.054Z,21.02
2017-11-12T20:50:59.805Z,17.98
2017-11-12T20:53:27.556Z,21.27
2017-11-12T20:55:55.350Z,25.77
2017-11-12T20:58:23.869Z,22.08
2017-11-12T21:00:52.179Z,14.75
2017-11-12T21:03:20.963Z,14.27
2017-11-12T21:05:53.362Z,16.48
2017-11-12T21:08:22.016Z,18.73
2017-11-12T21:10:49.770Z,20.65
2017-11-12T21:13:17.624Z,19.85
2017-11-12T21:15:45.450Z,19.80
2017-11-12T21:18:13.212Z,20.65
2017-11-12T21:20:48.782Z,25.02
2017-11-12T21:23:20.345Z,21.60
2017-11-12T21:25:48.913Z,23.12
2017-11-12T21:28:21.271Z,22.37
2017-11-12T21:30:58.987Z,27.73
2017-11-12T21:33:27.652Z,28.42
2017-11-12T21:36:01.047Z,23.80
2017-11-12T21:38:28.795Z,19.80
2017-11-12T21:40:56.554Z,20.45
2017-11-12T21:43:24.343Z,22.98
2017-11-12T21:45:52.094Z,20.62
2017-11-12T21:48:19.846Z,18.52
2017-11-12T21:50:47.640Z,21.83
2017-11-12T21:53:15.390Z,22.60
2017-11-12T21:55:43.198Z,21.48
2017-11-12T21:58:11.760Z,26.08
2017-11-12T22:00:39.521Z,26.33
2017-11-12T22:03:07.269Z,21.42
2017-11-12T22:05:35.142Z,28.33
2017-11-12T22:08:02.917Z,30.23
2017-11-12T22:10:30.669Z,24.60
2017-11-12T22:12:58.464Z,24.17
2017-11-12T22:15:26.976Z,28.90
2017-11-12T22:17:54.728Z,26.40
2017-11-12T22:20:22.510Z,25.33
2017-11-12T22:22:50.266Z,26.83
2017-11-12T22:25:18.013Z,23.40
2017-11-12T22:27:45.795Z,25.58
2017-11-12T22:30:13.602Z,33.47
2017-11-12T22:32:42.148Z,30.05
2017-11-12T22:35:09.957Z,31.35
2017-11-12T22:37:38.603Z,35.47
2017-11-12T22:40:07.463Z,28.42
2017-11-12T22:42:35.335Z,30.98
2017-11-12T22:45:03.187Z,25.00
2017-11-12T22:47:30.950Z,27.45
2017-11-12T22:49:58.766Z,26.83
2017-11-12T22:52:27.307Z,35.63
2017-11-12T22:54:55.189Z,28.20
2017-11-12T22:57:23.013Z,21.20
2017-11-12T22:59:50.877Z,27.25
2017-11-12T23:02:18.739Z,26.50
2017-11-12T23:04:46.647Z,21.15
2017-11-12T23:07:15.328Z,21.25
2017-11-12T23:09:43.238Z,27.80
2017-11-12T23:12:11.091Z,25.23
2017-11-12T23:14:38.902Z,22.40
2017-11-12T23:17:06.774Z,21.60
2017-11-12T23:19:34.805Z,23.90
2017-11-12T23:22:02.688Z,24.17
2017-11-12T23:24:30.466Z,25.92
2017-11-12T23:26:58.456Z,27.33
2017-11-12T23:29:27.008Z,30.70
2017-11-12T23:31:55.050Z,29.55
2017-11-12T23:34:22.968Z,29.45
2017-11-12T23:36:50.722Z,29.30
2017-11-12T23:39:18.478Z,26.85
2017-11-12T23:41:46.264Z,24.65
2017-11-12T23:44:14.821Z,28.40
2017-11-12T23:46:42.600Z,31.08
2017-11-12T23:49:11.175Z,25.23
2017-11-12T23:51:39.133Z,24.87
2017-11-12T23:54:07.303Z,28.17
2017-11-12T23:56:35.121Z,32.05
2017-11-12T23:59:02.892Z,31.98
